sensor_id;sensor_type;location;lat;lon;timestamp;P1;durP1;ratioP1;P2;durP2;ratioP2
38252;SDS011;24785;52.372;20.672;2023-10-19T00:08:51;80.20;;;27.70;;
38252;SDS011;24785;52.372;20.672;2023-10-19T00:18:53;66.75;;;23.50;;
38252;SDS011;24785;52.372;20.672;2023-10-19T00:28:54;45.30;;;14.30;;
38252;SDS011;24785;52.372;20.672;2023-10-19T00:38:57;31.92;;;12.63;;
38252;SDS011;24785;52.372;20.672;2023-10-19T00:49:01;31.67;;;12.55;;
38252;SDS011;24785;52.372;20.672;2023-10-19T00:59:06;33.28;;;12.95;;
38252;SDS011;24785;52.372;20.672;2023-10-19T01:09:19;35.42;;;14.55;;
38252;SDS011;24785;52.372;20.672;2023-10-19T01:19:20;39.37;;;16.03;;
38252;SDS011;24785;52.372;20.672;2023-10-19T01:29:21;39.03;;;14.10;;
38252;SDS011;24785;52.372;20.672;2023-10-19T01:39:27;42.17;;;15.07;;
38252;SDS011;24785;52.372;20.672;2023-10-19T01:49:27;41.80;;;16.30;;
38252;SDS011;24785;52.372;20.672;2023-10-19T01:59:28;30.67;;;10.63;;
38252;SDS011;24785;52.372;20.672;2023-10-19T02:09:31;54.85;;;17.90;;
38252;SDS011;24785;52.372;20.672;2023-10-19T02:19:34;37.75;;;15.38;;
38252;SDS011;24785;52.372;20.672;2023-10-19T02:29:35;50.30;;;17.10;;
38252;SDS011;24785;52.372;20.672;2023-10-19T02:39:36;50.13;;;17.37;;
38252;SDS011;24785;52.372;20.672;2023-10-19T02:49:37;52.40;;;17.93;;
38252;SDS011;24785;52.372;20.672;2023-10-19T02:59:44;49.40;;;17.10;;
38252;SDS011;24785;52.372;20.672;2023-10-19T03:09:47;46.03;;;17.90;;
38252;SDS011;24785;52.372;20.672;2023-10-19T03:19:54;45.92;;;18.50;;
38252;SDS011;24785;52.372;20.672;2023-10-19T03:29:56;56.80;;;19.88;;
38252;SDS011;24785;52.372;20.672;2023-10-19T03:39:56;54.90;;;20.20;;
38252;SDS011;24785;52.372;20.672;2023-10-19T03:50:00;50.10;;;18.77;;
38252;SDS011;24785;52.372;20.672;2023-10-19T04:00:04;45.85;;;20.20;;
38252;SDS011;24785;52.372;20.672;2023-10-19T04:10:11;54.05;;;20.75;;
38252;SDS011;24785;52.372;20.672;2023-10-19T04:20:30;52.33;;;23.10;;
38252;SDS011;24785;52.372;20.672;2023-10-19T04:30:42;48.80;;;20.10;;
38252;SDS011;24785;52.372;20.672;2023-10-19T04:40:43;55.13;;;21.77;;
38252;SDS011;24785;52.372;20.672;2023-10-19T04:50:44;57.07;;;23.83;;
38252;SDS011;24785;52.372;20.672;2023-10-19T05:00:45;47.17;;;20.50;;
38252;SDS011;24785;52.372;20.672;2023-10-19T05:10:45;106.27;;;35.93;;
38252;SDS011;24785;52.372;20.672;2023-10-19T05:20:46;61.73;;;25.87;;
38252;SDS011;24785;52.372;20.672;2023-10-19T05:30:47;67.97;;;27.53;;
38252;SDS011;24785;52.372;20.672;2023-10-19T05:40:49;58.50;;;25.52;;
38252;SDS011;24785;52.372;20.672;2023-10-19T05:50:52;63.30;;;24.67;;
38252;SDS011;24785;52.372;20.672;2023-10-19T06:00:53;58.93;;;25.40;;
38252;SDS011;24785;52.372;20.672;2023-10-19T06:10:53;76.00;;;30.73;;
38252;SDS011;24785;52.372;20.672;2023-10-19T06:20:55;75.97;;;29.33;;
38252;SDS011;24785;52.372;20.672;2023-10-19T06:30:56;86.40;;;37.70;;
38252;SDS011;24785;52.372;20.672;2023-10-19T06:40:57;96.03;;;42.13;;
38252;SDS011;24785;52.372;20.672;2023-10-19T06:50:58;84.47;;;38.43;;
38252;SDS011;24785;52.372;20.672;2023-10-19T07:00:58;89.25;;;39.40;;
38252;SDS011;24785;52.372;20.672;2023-10-19T07:11:09;83.00;;;36.40;;
38252;SDS011;24785;52.372;20.672;2023-10-19T07:21:10;68.00;;;32.27;;
38252;SDS011;24785;52.372;20.672;2023-10-19T07:31:12;72.80;;;34.53;;
38252;SDS011;24785;52.372;20.672;2023-10-19T07:41:15;67.03;;;28.90;;
38252;SDS011;24785;52.372;20.672;2023-10-19T07:51:16;61.20;;;28.35;;
38252;SDS011;24785;52.372;20.672;2023-10-19T08:01:17;70.65;;;28.75;;
38252;SDS011;24785;52.372;20.672;2023-10-19T08:11:18;53.67;;;25.02;;
38252;SDS011;24785;52.372;20.672;2023-10-19T08:21:19;51.88;;;24.13;;
38252;SDS011;24785;52.372;20.672;2023-10-19T08:31:20;50.58;;;22.52;;
38252;SDS011;24785;52.372;20.672;2023-10-19T08:41:21;55.40;;;22.42;;
38252;SDS011;24785;52.372;20.672;2023-10-19T08:51:22;54.83;;;24.10;;
38252;SDS011;24785;52.372;20.672;2023-10-19T09:01:25;42.83;;;21.20;;
38252;SDS011;24785;52.372;20.672;2023-10-19T09:11:28;44.05;;;21.52;;
38252;SDS011;24785;52.372;20.672;2023-10-19T09:21:29;41.85;;;20.45;;
38252;SDS011;24785;52.372;20.672;2023-10-19T09:31:29;42.30;;;19.13;;
38252;SDS011;24785;52.372;20.672;2023-10-19T09:41:31;37.50;;;17.20;;
38252;SDS011;24785;52.372;20.672;2023-10-19T09:51:33;38.30;;;16.50;;
38252;SDS011;24785;52.372;20.672;2023-10-19T10:02:16;28.55;;;15.20;;
38252;SDS011;24785;52.372;20.672;2023-10-19T10:12:23;29.42;;;14.60;;
38252;SDS011;24785;52.372;20.672;2023-10-19T10:22:25;23.67;;;11.55;;
38252;SDS011;24785;52.372;20.672;2023-10-19T10:32:46;22.77;;;10.63;;
38252;SDS011;24785;52.372;20.672;2023-10-19T10:43:05;19.42;;;11.13;;
38252;SDS011;24785;52.372;20.672;2023-10-19T10:53:07;17.10;;;7.82;;
38252;SDS011;24785;52.372;20.672;2023-10-19T11:03:08;11.33;;;6.60;;
38252;SDS011;24785;52.372;20.672;2023-10-19T11:13:10;13.02;;;6.97;;
38252;SDS011;24785;52.372;20.672;2023-10-19T11:23:12;18.47;;;6.90;;
38252;SDS011;24785;52.372;20.672;2023-10-19T11:33:13;29.15;;;7.55;;
38252;SDS011;24785;52.372;20.672;2023-10-19T11:43:13;15.27;;;6.63;;
38252;SDS011;24785;52.372;20.672;2023-10-19T11:53:14;12.48;;;6.97;;
38252;SDS011;24785;52.372;20.672;2023-10-19T12:03:15;14.10;;;6.40;;
38252;SDS011;24785;52.372;20.672;2023-10-19T12:13:16;13.63;;;6.90;;
38252;SDS011;24785;52.372;20.672;2023-10-19T12:23:18;19.47;;;7.17;;
38252;SDS011;24785;52.372;20.672;2023-10-19T12:33:19;16.73;;;7.97;;
38252;SDS011;24785;52.372;20.672;2023-10-19T12:43:20;23.17;;;9.00;;
38252;SDS011;24785;52.372;20.672;2023-10-19T12:53:23;28.90;;;12.38;;
38252;SDS011;24785;52.372;20.672;2023-10-19T13:03:25;17.27;;;8.93;;
38252;SDS011;24785;52.372;20.672;2023-10-19T13:13:32;15.38;;;7.80;;
38252;SDS011;24785;52.372;20.672;2023-10-19T13:23:33;43.08;;;24.75;;
38252;SDS011;24785;52.372;20.672;2023-10-19T13:33:34;30.75;;;12.68;;
38252;SDS011;24785;52.372;20.672;2023-10-19T13:43:35;60.45;;;20.30;;
38252;SDS011;24785;52.372;20.672;2023-10-19T13:53:36;38.75;;;15.90;;
38252;SDS011;24785;52.372;20.672;2023-10-19T14:03:37;93.45;;;30.50;;
38252;SDS011;24785;52.372;20.672;2023-10-19T14:13:38;74.05;;;30.65;;
38252;SDS011;24785;52.372;20.672;2023-10-19T14:23:42;204.70;;;76.45;;
38252;SDS011;24785;52.372;20.672;2023-10-19T14:33:45;123.93;;;58.63;;
38252;SDS011;24785;52.372;20.672;2023-10-19T14:43:46;57.33;;;25.58;;
38252;SDS011;24785;52.372;20.672;2023-10-19T14:53:47;83.68;;;36.03;;
38252;SDS011;24785;52.372;20.672;2023-10-19T15:03:47;81.35;;;29.70;;
38252;SDS011;24785;52.372;20.672;2023-10-19T15:13:49;33.35;;;16.65;;
38252;SDS011;24785;52.372;20.672;2023-10-19T15:23:51;127.97;;;52.07;;
38252;SDS011;24785;52.372;20.672;2023-10-19T15:33:53;28.97;;;15.47;;
38252;SDS011;24785;52.372;20.672;2023-10-19T15:43:54;35.58;;;20.77;;
38252;SDS011;24785;52.372;20.672;2023-10-19T15:53:55;139.73;;;42.50;;
38252;SDS011;24785;52.372;20.672;2023-10-19T16:03:56;308.10;;;71.30;;
38252;SDS011;24785;52.372;20.672;2023-10-19T16:13:57;79.10;;;31.17;;
38252;SDS011;24785;52.372;20.672;2023-10-19T16:23:58;66.07;;;24.08;;
38252;SDS011;24785;52.372;20.672;2023-10-19T16:33:58;72.30;;;24.77;;
38252;SDS011;24785;52.372;20.672;2023-10-19T16:44:01;56.63;;;22.30;;
38252;SDS011;24785;52.372;20.672;2023-10-19T16:54:06;55.97;;;19.00;;
38252;SDS011;24785;52.372;20.672;2023-10-19T17:04:10;50.88;;;19.98;;
38252;SDS011;24785;52.372;20.672;2023-10-19T17:14:12;45.77;;;18.80;;
38252;SDS011;24785;52.372;20.672;2023-10-19T17:24:13;67.30;;;24.27;;
38252;SDS011;24785;52.372;20.672;2023-10-19T17:34:14;110.22;;;39.00;;
38252;SDS011;24785;52.372;20.672;2023-10-19T17:44:15;36.33;;;17.52;;
38252;SDS011;24785;52.372;20.672;2023-10-19T17:54:16;41.95;;;18.27;;
38252;SDS011;24785;52.372;20.672;2023-10-19T18:04:17;47.72;;;19.23;;
38252;SDS011;24785;52.372;20.672;2023-10-19T18:14:18;39.55;;;16.77;;
38252;SDS011;24785;52.372;20.672;2023-10-19T18:24:19;33.30;;;15.93;;
38252;SDS011;24785;52.372;20.672;2023-10-19T18:34:20;36.00;;;17.27;;
38252;SDS011;24785;52.372;20.672;2023-10-19T18:44:22;50.30;;;20.02;;
38252;SDS011;24785;52.372;20.672;2023-10-19T18:54:22;36.33;;;17.08;;
38252;SDS011;24785;52.372;20.672;2023-10-19T19:04:23;55.45;;;21.48;;
38252;SDS011;24785;52.372;20.672;2023-10-19T19:14:25;48.95;;;17.55;;
38252;SDS011;24785;52.372;20.672;2023-10-19T19:24:26;50.95;;;19.50;;
38252;SDS011;24785;52.372;20.672;2023-10-19T19:34:27;62.60;;;22.48;;
38252;SDS011;24785;52.372;20.672;2023-10-19T19:44:27;50.58;;;21.15;;
38252;SDS011;24785;52.372;20.672;2023-10-19T19:54:28;30.73;;;15.57;;
38252;SDS011;24785;52.372;20.672;2023-10-19T20:04:30;39.17;;;16.55;;
38252;SDS011;24785;52.372;20.672;2023-10-19T20:14:31;38.42;;;17.00;;
38252;SDS011;24785;52.372;20.672;2023-10-19T20:24:32;34.00;;;16.90;;
38252;SDS011;24785;52.372;20.672;2023-10-19T20:34:33;37.15;;;17.35;;
38252;SDS011;24785;52.372;20.672;2023-10-19T20:44:34;41.03;;;19.30;;
38252;SDS011;24785;52.372;20.672;2023-10-19T20:54:40;40.92;;;20.08;;
38252;SDS011;24785;52.372;20.672;2023-10-19T21:04:41;43.05;;;18.42;;
38252;SDS011;24785;52.372;20.672;2023-10-19T21:14:42;38.78;;;19.13;;
38252;SDS011;24785;52.372;20.672;2023-10-19T21:24:43;40.05;;;19.02;;
38252;SDS011;24785;52.372;20.672;2023-10-19T21:34:43;37.38;;;18.55;;
38252;SDS011;24785;52.372;20.672;2023-10-19T21:44:44;38.28;;;17.65;;
38252;SDS011;24785;52.372;20.672;2023-10-19T21:54:46;33.80;;;16.80;;
38252;SDS011;24785;52.372;20.672;2023-10-19T22:04:48;36.67;;;17.40;;
38252;SDS011;24785;52.372;20.672;2023-10-19T22:14:48;32.55;;;15.73;;
38252;SDS011;24785;52.372;20.672;2023-10-19T22:24:50;31.90;;;17.23;;
38252;SDS011;24785;52.372;20.672;2023-10-19T22:34:51;29.05;;;14.68;;
38252;SDS011;24785;52.372;20.672;2023-10-19T22:44:52;31.42;;;14.73;;
38252;SDS011;24785;52.372;20.672;2023-10-19T22:54:53;28.17;;;13.75;;
38252;SDS011;24785;52.372;20.672;2023-10-19T23:04:54;31.50;;;13.80;;
38252;SDS011;24785;52.372;20.672;2023-10-19T23:14:55;26.35;;;13.30;;
38252;SDS011;24785;52.372;20.672;2023-10-19T23:24:57;29.38;;;13.27;;
38252;SDS011;24785;52.372;20.672;2023-10-19T23:34:59;28.40;;;12.33;;
38252;SDS011;24785;52.372;20.672;2023-10-19T23:45:00;24.23;;;12.18;;
38252;SDS011;24785;52.372;20.672;2023-10-19T23:55:01;26.27;;;12.90;;
